Warriormine, West Virginia
Current Conditions -  °F | °C
As of 12:55 AM on Thursday 23 Oct 2014 (Local Time) from KJFZ Reporting Station
Overcast Overcast  
Wind Chill: 41°   Ceiling: 800
Heat Index: 45°   Visibility: 10mi
Dew Point: 42°   Wind: 7mph
Humidity: 91%   Direction: 330°NNW
Pressure: 30.17"   Gusts: NA
Location:  37.29°N, 81.7°W
Report Text: KJFZ 230455Z AUTO 33006KT 10SM OVC008 07/06 A3017 RMK AO2 T00700057
Loading
Personal Weather Stations






























Interactive Weather Map
Tropical Storm Tracking
New forecast layout! Learn more

10-Day Weather Forecast

Advertisements
Track Severe Weather on mobile